createdAt,value
2018-10-21T00:01:43.448Z,81.80
2018-10-21T00:04:12.162Z,82.10
2018-10-21T00:06:40.903Z,81.70
2018-10-21T00:09:11.395Z,81.70
2018-10-21T00:11:40.103Z,81.70
2018-10-21T00:14:09.329Z,82.10
2018-10-21T00:16:38.052Z,81.60
2018-10-21T00:19:06.865Z,81.80
2018-10-21T00:21:35.701Z,82.10
2018-10-21T00:24:04.759Z,82.30
2018-10-21T00:26:33.597Z,82.40
2018-10-21T00:29:02.547Z,82.30
2018-10-21T00:31:31.404Z,82.20
2018-10-21T00:34:00.110Z,82.70
2018-10-21T00:36:28.864Z,82.90
2018-10-21T00:39:01.788Z,82.80
2018-10-21T00:41:30.460Z,82.70
2018-10-21T00:43:59.231Z,82.60
2018-10-21T00:46:28.013Z,82.80
2018-10-21T00:48:56.726Z,82.40
2018-10-21T00:51:25.773Z,82.50
2018-10-21T00:53:54.274Z,82.70
2018-10-21T00:56:22.975Z,82.90
2018-10-21T00:58:51.821Z,83.20
2018-10-21T01:01:20.458Z,82.90
2018-10-21T01:03:49.032Z,83.00
2018-10-21T01:06:17.962Z,83.00
2018-10-21T01:08:46.593Z,83.10
2018-10-21T01:11:15.345Z,83.40
2018-10-21T01:13:44.181Z,82.90
2018-10-21T01:16:13.023Z,83.30
2018-10-21T01:18:41.352Z,82.70
2018-10-21T01:21:10.083Z,83.50
2018-10-21T01:23:38.904Z,82.90
2018-10-21T01:26:08.406Z,83.00
2018-10-21T01:28:37.101Z,83.30
2018-10-21T01:31:06.329Z,83.30
2018-10-21T01:33:35.113Z,83.30
2018-10-21T01:36:03.957Z,84.10
2018-10-21T01:38:32.465Z,83.50
2018-10-21T01:41:01.176Z,84.00
2018-10-21T01:43:31.114Z,83.60
2018-10-21T01:46:01.369Z,83.70
2018-10-21T01:48:30.643Z,84.10
2018-10-21T01:50:59.406Z,83.70
2018-10-21T01:53:28.076Z,83.90
2018-10-21T01:55:56.925Z,83.70
2018-10-21T01:58:25.581Z,84.20
2018-10-21T02:00:54.338Z,84.30
2018-10-21T02:03:22.943Z,84.30
2018-10-21T02:05:51.882Z,84.30
2018-10-21T02:08:20.362Z,84.20
2018-10-21T02:10:49.034Z,84.10
2018-10-21T02:13:17.477Z,84.30
2018-10-21T02:15:46.037Z,84.30
2018-10-21T02:18:14.884Z,84.20
2018-10-21T02:20:43.341Z,84.20
2018-10-21T02:23:12.088Z,85.10
2018-10-21T02:25:40.964Z,84.30
2018-10-21T02:28:09.885Z,84.80
2018-10-21T02:30:39.518Z,85.00
2018-10-21T02:33:08.097Z,84.50
2018-10-21T02:35:36.950Z,84.10
2018-10-21T02:38:06.044Z,84.60
2018-10-21T02:41:44.106Z,85.00
2018-10-21T02:44:16.976Z,84.70
2018-10-21T02:46:46.182Z,84.40
2018-10-21T02:49:15.549Z,84.80
2018-10-21T02:51:48.744Z,85.10
2018-10-21T02:54:22.063Z,85.80
2018-10-21T02:56:50.781Z,85.70
2018-10-21T02:59:19.359Z,85.00
2018-10-21T03:01:47.957Z,85.10
2018-10-21T03:04:16.861Z,85.40
2018-10-21T03:06:45.513Z,85.90
2018-10-21T03:09:14.487Z,86.50
2018-10-21T03:11:43.401Z,86.00
2018-10-21T03:14:12.145Z,85.70
2018-10-21T03:16:40.869Z,85.70
2018-10-21T03:19:09.235Z,86.00
2018-10-21T03:21:38.115Z,85.90
2018-10-21T03:24:06.941Z,85.30
2018-10-21T03:26:35.467Z,85.00
2018-10-21T03:29:04.313Z,85.20
2018-10-21T03:31:32.781Z,84.60
2018-10-21T03:34:01.408Z,84.80
2018-10-21T03:36:29.958Z,84.70
2018-10-21T03:38:59.238Z,85.20
2018-10-21T03:41:27.760Z,85.40
2018-10-21T03:44:01.686Z,85.30
2018-10-21T03:46:30.492Z,85.20
2018-10-21T03:48:59.316Z,85.70
2018-10-21T03:51:27.811Z,85.80
2018-10-21T03:53:56.310Z,85.40
2018-10-21T03:56:24.950Z,85.40
2018-10-21T03:58:53.410Z,86.00
2018-10-21T04:01:22.027Z,85.80
2018-10-21T04:03:50.806Z,85.20
2018-10-21T04:06:19.296Z,85.60
2018-10-21T04:08:48.015Z,85.80
2018-10-21T04:11:16.870Z,85.50
2018-10-21T04:13:45.762Z,85.90
2018-10-21T04:16:14.363Z,85.50
2018-10-21T04:18:42.925Z,86.00
2018-10-21T04:21:11.810Z,86.10
2018-10-21T04:23:40.494Z,86.70
2018-10-21T04:26:09.170Z,85.50
2018-10-21T04:28:37.857Z,85.90
2018-10-21T04:31:06.590Z,86.30
2018-10-21T04:33:42.473Z,85.60
2018-10-21T04:36:13.423Z,86.20
2018-10-21T04:39:51.212Z,86.60
2018-10-21T04:42:19.985Z,86.00
2018-10-21T04:44:49.024Z,86.50
2018-10-21T04:47:17.704Z,86.40
2018-10-21T04:49:46.189Z,86.30
2018-10-21T04:52:14.926Z,86.10
2018-10-21T04:54:43.769Z,86.20
2018-10-21T04:57:12.726Z,86.00
2018-10-21T04:59:41.189Z,85.90
2018-10-21T05:02:10.035Z,85.90
2018-10-21T05:04:38.727Z,86.00
2018-10-21T05:07:07.813Z,86.00
2018-10-21T05:09:38.768Z,86.10
2018-10-21T05:12:07.880Z,86.30
2018-10-21T05:14:36.487Z,85.70
2018-10-21T05:17:05.194Z,86.10
2018-10-21T05:19:33.912Z,85.90
2018-10-21T05:22:02.359Z,86.10
2018-10-21T05:24:30.884Z,86.10
2018-10-21T05:26:59.767Z,86.40
2018-10-21T05:29:28.452Z,86.10
2018-10-21T05:31:57.141Z,86.30
2018-10-21T05:34:26.285Z,86.10
2018-10-21T05:36:55.102Z,86.30
2018-10-21T05:39:23.819Z,86.50
2018-10-21T05:41:52.225Z,86.60
2018-10-21T05:44:20.988Z,86.80
2018-10-21T05:46:53.124Z,86.80
2018-10-21T05:49:22.016Z,86.80
2018-10-21T05:51:51.293Z,86.50
2018-10-21T05:54:20.093Z,86.60
2018-10-21T05:56:49.858Z,86.90
2018-10-21T05:59:18.787Z,87.30
2018-10-21T06:01:47.935Z,87.40
2018-10-21T06:04:17.348Z,87.30
2018-10-21T06:06:45.888Z,87.20
2018-10-21T06:09:15.110Z,86.90
2018-10-21T06:11:43.902Z,87.00
2018-10-21T06:14:22.380Z,86.70
2018-10-21T06:16:58.938Z,87.00
2018-10-21T06:19:35.003Z,87.10
2018-10-21T06:22:03.760Z,87.60
2018-10-21T06:24:32.333Z,88.00
2018-10-21T06:27:01.290Z,87.80
2018-10-21T06:29:29.918Z,88.10
2018-10-21T06:31:58.749Z,88.50
2018-10-21T06:34:44.375Z,88.30
2018-10-21T06:37:30.973Z,88.10
2018-10-21T06:42:46.720Z,88.30
2018-10-21T06:45:33.630Z,88.40
2018-10-21T06:50:51.288Z,87.70
2018-10-21T06:53:34.802Z,88.20
2018-10-21T06:56:19.420Z,87.80
2018-10-21T06:59:07.801Z,87.70
2018-10-21T07:01:54.594Z,87.60
2018-10-21T07:04:42.665Z,87.80
2018-10-21T07:07:17.088Z,88.50
2018-10-21T07:09:48.373Z,88.40
2018-10-21T07:12:20.015Z,88.70
2018-10-21T07:14:49.618Z,88.50
2018-10-21T07:17:18.061Z,88.20
2018-10-21T07:19:46.811Z,88.60
2018-10-21T07:22:15.700Z,88.50
2018-10-21T07:24:44.580Z,88.80
2018-10-21T07:27:13.280Z,88.80
2018-10-21T07:29:41.899Z,89.00
2018-10-21T07:32:10.619Z,88.60
2018-10-21T07:34:39.383Z,88.50
2018-10-21T07:37:07.948Z,88.60
2018-10-21T07:39:36.658Z,88.70
2018-10-21T07:42:05.615Z,88.70
2018-10-21T07:44:34.469Z,88.80
2018-10-21T07:47:03.141Z,88.70
2018-10-21T07:49:31.632Z,89.00
2018-10-21T07:52:03.193Z,88.90
2018-10-21T07:54:31.886Z,88.60
2018-10-21T07:57:00.527Z,88.40
2018-10-21T07:59:29.021Z,88.30
2018-10-21T08:01:57.732Z,88.20
2018-10-21T08:04:26.613Z,88.40
2018-10-21T08:07:06.335Z,88.30
2018-10-21T08:09:34.801Z,88.20
2018-10-21T08:12:03.345Z,88.50
2018-10-21T08:14:32.255Z,88.50
2018-10-21T08:17:01.069Z,88.80
2018-10-21T08:19:29.762Z,88.90
2018-10-21T08:21:58.297Z,88.80
2018-10-21T08:24:27.133Z,88.80
2018-10-21T08:26:55.820Z,88.50
2018-10-21T08:29:25.562Z,88.00
2018-10-21T08:31:54.441Z,87.50
2018-10-21T08:34:22.956Z,87.10
2018-10-21T08:36:51.837Z,86.20
2018-10-21T08:39:21.867Z,85.70
2018-10-21T08:41:50.371Z,84.50
2018-10-21T08:44:32.249Z,84.10
2018-10-21T08:47:19.121Z,82.60
2018-10-21T08:50:06.460Z,81.60
2018-10-21T08:52:48.601Z,80.10
2018-10-21T08:55:17.141Z,79.20
2018-10-21T08:57:45.822Z,78.00
2018-10-21T09:00:16.245Z,77.20
2018-10-21T09:02:46.507Z,76.40
2018-10-21T09:05:17.247Z,75.80
2018-10-21T09:07:47.021Z,73.90
2018-10-21T09:10:17.747Z,72.30
2018-10-21T09:12:46.328Z,71.30
2018-10-21T09:15:16.607Z,70.10
2018-10-21T09:17:53.485Z,68.80
2018-10-21T09:20:25.237Z,67.30
2018-10-21T09:22:54.223Z,67.00
2018-10-21T09:25:22.864Z,65.90
2018-10-21T09:27:51.786Z,64.00
2018-10-21T09:30:20.500Z,63.30
2018-10-21T09:32:49.769Z,61.50
2018-10-21T09:35:19.558Z,61.10
2018-10-21T09:37:49.901Z,60.60
2018-10-21T09:40:20.480Z,60.20
2018-10-21T09:43:13.501Z,59.60
2018-10-21T09:45:42.284Z,60.20
2018-10-21T09:48:13.892Z,58.40
2018-10-21T09:50:42.739Z,57.30
2018-10-21T09:53:15.231Z,56.50
2018-10-21T09:55:43.994Z,56.10
2018-10-21T09:58:12.701Z,56.00
2018-10-21T10:02:55.825Z,54.60
2018-10-21T10:05:28.463Z,54.80
2018-10-21T10:07:57.244Z,52.50
2018-10-21T10:10:26.641Z,51.80
2018-10-21T10:12:56.778Z,51.80
2018-10-21T10:15:24.789Z,52.50
2018-10-21T10:17:53.592Z,50.60
2018-10-21T10:20:23.337Z,51.10
2018-10-21T10:22:52.411Z,49.30
2018-10-21T10:25:21.004Z,48.80
2018-10-21T10:27:55.937Z,48.50
2018-10-21T10:30:25.282Z,49.60
2018-10-21T10:32:55.612Z,48.80
2018-10-21T10:35:23.675Z,47.80
2018-10-21T10:37:52.840Z,47.40
2018-10-21T10:40:22.620Z,48.20
2018-10-21T10:42:51.324Z,47.60
2018-10-21T10:45:19.904Z,47.90
2018-10-21T10:47:49.541Z,47.40
2018-10-21T10:50:28.409Z,47.30
2018-10-21T10:52:58.002Z,47.40
2018-10-21T10:55:35.675Z,48.00
2018-10-21T10:58:06.746Z,47.60
2018-10-21T11:00:37.903Z,47.80
2018-10-21T11:03:17.831Z,47.20
2018-10-21T11:05:50.269Z,47.40
2018-10-21T11:08:30.154Z,47.40
2018-10-21T11:11:07.337Z,48.20
2018-10-21T11:13:39.881Z,47.00
2018-10-21T11:16:16.115Z,47.20
2018-10-21T11:18:49.689Z,46.50
2018-10-21T11:21:33.306Z,46.80
2018-10-21T11:24:38.011Z,46.00
2018-10-21T11:27:15.767Z,46.10
2018-10-21T11:29:49.217Z,45.70
2018-10-21T11:32:40.566Z,44.90
2018-10-21T11:35:18.163Z,44.60
2018-10-21T11:37:55.222Z,45.80
2018-10-21T11:40:29.757Z,45.00
2018-10-21T11:43:07.678Z,45.30
2018-10-21T11:45:39.473Z,43.90
2018-10-21T11:48:10.087Z,45.20
2018-10-21T11:50:45.009Z,43.70
2018-10-21T11:53:17.148Z,44.80
2018-10-21T11:55:46.018Z,43.50
2018-10-21T11:58:16.949Z,42.30
2018-10-21T12:00:48.117Z,41.90
2018-10-21T12:03:16.288Z,42.60
2018-10-21T12:05:46.714Z,42.30
2018-10-21T12:08:18.031Z,43.90
2018-10-21T12:10:51.120Z,45.60
2018-10-21T12:13:23.826Z,47.00
2018-10-21T12:15:53.447Z,46.70
2018-10-21T12:18:31.552Z,47.90
2018-10-21T12:21:12.904Z,48.30
2018-10-21T12:23:43.519Z,48.30
2018-10-21T12:26:21.430Z,48.20
2018-10-21T12:28:53.628Z,47.40
2018-10-21T12:31:22.795Z,47.60
2018-10-21T12:34:06.480Z,47.00
2018-10-21T12:36:39.294Z,48.10
2018-10-21T12:39:13.583Z,47.50
2018-10-21T12:41:42.986Z,48.30
2018-10-21T12:44:13.886Z,48.80
2018-10-21T12:46:48.298Z,48.90
2018-10-21T12:49:18.365Z,49.40
2018-10-21T12:51:49.073Z,48.50
2018-10-21T12:54:22.948Z,49.80
2018-10-21T12:57:01.038Z,50.20
2018-10-21T12:59:31.973Z,51.40
2018-10-21T13:02:03.696Z,51.00
2018-10-21T13:04:45.834Z,50.70
2018-10-21T13:07:18.345Z,51.30
2018-10-21T13:09:49.970Z,50.80
2018-10-21T13:12:37.166Z,50.40
2018-10-21T13:15:09.434Z,51.20
2018-10-21T13:17:47.176Z,51.00
2018-10-21T13:20:24.727Z,51.80
2018-10-21T13:22:56.327Z,51.40
2018-10-21T13:25:28.043Z,52.10
2018-10-21T13:27:59.169Z,50.70
2018-10-21T13:30:30.457Z,51.90
2018-10-21T13:33:01.782Z,51.20
2018-10-21T13:35:35.662Z,51.80
2018-10-21T13:38:10.749Z,51.10
2018-10-21T13:40:47.671Z,50.80
2018-10-21T13:43:36.117Z,51.20
2018-10-21T13:46:06.742Z,50.00
2018-10-21T13:48:37.609Z,45.00
2018-10-21T13:51:12.515Z,45.20
2018-10-21T13:53:41.254Z,44.70
2018-10-21T13:56:16.568Z,44.00
2018-10-21T13:58:50.926Z,44.60
2018-10-21T14:01:27.749Z,43.70
2018-10-21T14:04:01.797Z,44.70
2018-10-21T14:06:34.828Z,47.10
2018-10-21T14:09:14.805Z,45.10
2018-10-21T14:11:51.262Z,47.10
2018-10-21T14:14:30.296Z,47.20
2018-10-21T14:17:02.874Z,48.00
2018-10-21T14:19:40.652Z,48.30
2018-10-21T14:22:20.257Z,47.30
2018-10-21T14:24:57.928Z,47.10
2018-10-21T14:27:33.526Z,46.90
2018-10-21T14:30:10.372Z,48.50
2018-10-21T14:32:40.093Z,49.10
2018-10-21T14:35:12.604Z,48.40
2018-10-21T14:37:50.269Z,48.90
2018-10-21T14:40:23.814Z,49.80
2018-10-21T14:42:54.488Z,48.40
2018-10-21T14:45:23.708Z,48.40
2018-10-21T14:47:54.340Z,49.60
2018-10-21T14:50:23.543Z,50.10
2018-10-21T14:52:53.907Z,49.90
2018-10-21T14:55:24.255Z,50.00
2018-10-21T14:57:52.715Z,49.60
2018-10-21T15:00:29.053Z,50.10
2018-10-21T15:02:58.709Z,50.40
2018-10-21T15:05:30.533Z,51.00
2018-10-21T15:08:05.021Z,50.40
2018-10-21T15:10:35.611Z,50.10
2018-10-21T15:13:05.057Z,48.10
2018-10-21T15:15:34.371Z,49.10
2018-10-21T15:18:04.797Z,47.60
2018-10-21T15:20:35.402Z,48.10
2018-10-21T15:23:06.258Z,47.40
2018-10-21T15:25:36.649Z,45.50
2018-10-21T15:28:05.838Z,45.80
2018-10-21T15:30:34.690Z,44.70
2018-10-21T15:33:06.241Z,45.90
2018-10-21T15:35:35.242Z,43.80
2018-10-21T15:38:07.173Z,44.90
2018-10-21T15:40:37.925Z,45.10
2018-10-21T15:43:15.713Z,45.40
2018-10-21T15:45:46.002Z,45.20
2018-10-21T15:48:30.756Z,47.00
2018-10-21T15:51:11.981Z,47.50
2018-10-21T15:54:04.299Z,47.90
2018-10-21T15:56:37.106Z,48.00
2018-10-21T15:59:08.530Z,49.00
2018-10-21T16:01:45.185Z,49.70
2018-10-21T16:04:17.431Z,49.80
2018-10-21T16:06:48.382Z,50.90
2018-10-21T16:09:19.525Z,51.10
2018-10-21T16:11:49.196Z,51.80
2018-10-21T16:14:18.529Z,51.50
2018-10-21T16:16:49.585Z,51.20
2018-10-21T16:19:21.187Z,49.70
2018-10-21T16:21:59.098Z,50.90
2018-10-21T16:24:41.584Z,51.80
2018-10-21T16:27:18.235Z,52.70
2018-10-21T16:29:51.074Z,53.20
2018-10-21T16:32:23.470Z,53.20
2018-10-21T16:34:59.911Z,53.30
2018-10-21T16:37:40.067Z,53.40
2018-10-21T16:40:15.083Z,53.50
2018-10-21T16:42:43.813Z,52.90
2018-10-21T16:45:16.700Z,53.00
2018-10-21T16:47:52.403Z,52.70
2018-10-21T16:50:21.266Z,52.80
2018-10-21T16:52:50.552Z,52.50
2018-10-21T16:55:21.906Z,53.10
2018-10-21T16:57:55.939Z,54.10
2018-10-21T17:00:26.963Z,54.00
2018-10-21T17:03:04.399Z,53.80
2018-10-21T17:05:36.243Z,53.90
2018-10-21T17:08:10.245Z,54.30
2018-10-21T17:10:44.702Z,55.30
2018-10-21T17:13:18.831Z,54.40
2018-10-21T17:15:49.114Z,55.10
2018-10-21T17:18:31.860Z,55.40
2018-10-21T17:21:06.606Z,55.70
2018-10-21T17:24:00.720Z,56.10
2018-10-21T17:26:52.457Z,56.20
2018-10-21T17:29:37.927Z,56.90
2018-10-21T17:32:25.821Z,57.20
2018-10-21T17:35:10.828Z,58.20
2018-10-21T17:37:58.627Z,58.60
2018-10-21T17:40:42.650Z,59.40
2018-10-21T17:43:29.791Z,60.90
2018-10-21T17:49:22.292Z,63.00
2018-10-21T17:52:28.316Z,64.00
2018-10-21T17:55:30.223Z,64.90
2018-10-21T17:58:37.044Z,65.50
2018-10-21T18:01:36.721Z,66.10
2018-10-21T18:07:24.800Z,67.40
2018-10-21T18:10:26.091Z,68.00
2018-10-21T18:13:10.467Z,68.80
2018-10-21T18:15:41.953Z,69.30
2018-10-21T18:18:17.830Z,69.90
2018-10-21T18:20:53.618Z,70.60
2018-10-21T18:23:27.561Z,71.30
2018-10-21T18:26:06.207Z,71.70
2018-10-21T18:28:40.077Z,72.20
2018-10-21T18:31:12.216Z,72.70
2018-10-21T18:33:46.907Z,73.00
2018-10-21T18:36:19.031Z,73.30
2018-10-21T18:38:50.818Z,73.90
2018-10-21T18:41:26.309Z,74.30
2018-10-21T18:43:58.266Z,74.50
2018-10-21T18:46:32.928Z,75.20
2018-10-21T18:49:06.664Z,75.40
2018-10-21T18:51:38.285Z,75.50
2018-10-21T18:54:12.717Z,76.10
2018-10-21T18:56:46.566Z,76.20
2018-10-21T18:59:17.427Z,76.70
2018-10-21T19:01:49.355Z,77.10
2018-10-21T19:04:24.886Z,77.00
2018-10-21T19:07:00.366Z,77.40
2018-10-21T19:09:34.524Z,77.80
2018-10-21T19:12:07.043Z,78.30
2018-10-21T19:14:41.318Z,78.40
2018-10-21T19:17:13.158Z,78.70
2018-10-21T19:19:48.374Z,79.20
2018-10-21T19:22:21.008Z,79.40
2018-10-21T19:24:51.796Z,79.70
2018-10-21T19:27:23.748Z,79.70
2018-10-21T19:29:57.279Z,79.60
2018-10-21T19:32:35.875Z,80.00
2018-10-21T19:35:09.071Z,80.20
2018-10-21T19:37:40.565Z,80.50
2018-10-21T19:40:17.736Z,80.80
2018-10-21T19:42:51.505Z,81.10
2018-10-21T19:45:23.608Z,81.40
2018-10-21T19:47:54.301Z,81.40
2018-10-21T19:50:29.237Z,81.60
2018-10-21T19:53:04.420Z,81.80
2018-10-21T19:55:39.565Z,81.80
2018-10-21T19:58:11.889Z,82.00
2018-10-21T20:00:42.991Z,82.10
2018-10-21T20:03:13.661Z,82.10
2018-10-21T20:05:49.010Z,82.50
2018-10-21T20:08:22.426Z,82.60
2018-10-21T20:10:56.060Z,82.60
2018-10-21T20:13:26.242Z,82.80
2018-10-21T20:15:57.945Z,82.80
2018-10-21T20:18:32.321Z,82.90
2018-10-21T20:21:07.480Z,82.90
2018-10-21T20:23:37.152Z,83.00
2018-10-21T20:26:07.629Z,83.10
2018-10-21T20:28:37.031Z,83.20
2018-10-21T20:31:05.986Z,83.20
2018-10-21T20:33:34.808Z,83.20
2018-10-21T20:36:04.276Z,83.30
2018-10-21T20:38:35.554Z,83.40
2018-10-21T20:41:06.783Z,83.50
2018-10-21T20:43:37.499Z,83.50
2018-10-21T20:46:07.893Z,83.50
2018-10-21T20:48:37.277Z,83.50
2018-10-21T20:51:08.553Z,83.50
2018-10-21T20:53:37.449Z,83.60
2018-10-21T20:56:07.789Z,83.60
2018-10-21T20:58:37.159Z,83.60
2018-10-21T21:01:07.481Z,83.40
2018-10-21T21:03:37.116Z,83.30
2018-10-21T21:06:06.077Z,83.30
2018-10-21T21:08:34.640Z,83.40
2018-10-21T21:11:04.828Z,83.40
2018-10-21T21:13:35.075Z,83.40
2018-10-21T21:16:03.948Z,83.40
2018-10-21T21:18:33.918Z,83.30
2018-10-21T21:21:02.868Z,83.30
2018-10-21T21:23:32.334Z,83.10
2018-10-21T21:26:01.186Z,83.40
2018-10-21T21:28:30.051Z,83.40
2018-10-21T21:30:58.749Z,83.30
2018-10-21T21:33:27.255Z,83.20
2018-10-21T21:35:56.130Z,83.20
2018-10-21T21:38:24.817Z,83.20
2018-10-21T21:40:53.325Z,83.60
2018-10-21T21:43:22.122Z,83.50
2018-10-21T21:45:50.872Z,83.60
2018-10-21T21:48:19.603Z,83.60
2018-10-21T21:50:48.206Z,83.50
2018-10-21T21:53:17.104Z,83.50
2018-10-21T21:55:45.854Z,83.50
2018-10-21T21:58:14.573Z,83.40
2018-10-21T22:00:43.148Z,83.30
2018-10-21T22:03:12.208Z,83.40
2018-10-21T22:05:40.944Z,83.30
2018-10-21T22:08:15.151Z,83.50
2018-10-21T22:10:44.035Z,83.70
2018-10-21T22:13:12.719Z,83.60
2018-10-21T22:15:41.230Z,83.50
2018-10-21T22:18:10.175Z,83.50
2018-10-21T22:20:38.808Z,83.40
2018-10-21T22:23:07.331Z,83.40
2018-10-21T22:25:35.961Z,83.50
2018-10-21T22:28:04.933Z,83.40
2018-10-21T22:30:33.777Z,83.70
2018-10-21T22:33:08.775Z,83.70
2018-10-21T22:35:37.697Z,83.60
2018-10-21T22:38:06.416Z,83.70
2018-10-21T22:40:35.264Z,83.90
2018-10-21T22:43:03.823Z,84.20
2018-10-21T22:45:32.394Z,84.20
2018-10-21T22:48:01.110Z,84.40
2018-10-21T22:50:29.531Z,84.50
2018-10-21T22:52:58.082Z,84.60
2018-10-21T22:55:26.756Z,84.90
2018-10-21T22:57:59.775Z,84.80
2018-10-21T23:00:28.946Z,84.50
2018-10-21T23:02:57.531Z,84.50
2018-10-21T23:05:26.045Z,84.50
2018-10-21T23:07:54.621Z,84.50
2018-10-21T23:10:27.095Z,84.30
2018-10-21T23:12:55.936Z,84.40
2018-10-21T23:15:24.436Z,84.20
2018-10-21T23:17:53.345Z,84.30
2018-10-21T23:20:22.225Z,84.20
2018-10-21T23:22:53.046Z,84.30
2018-10-21T23:25:23.808Z,84.30
2018-10-21T23:27:52.570Z,84.80
2018-10-21T23:30:21.346Z,84.80
2018-10-21T23:32:50.149Z,84.90
2018-10-21T23:35:18.687Z,85.20
2018-10-21T23:37:47.562Z,85.30
2018-10-21T23:40:16.439Z,85.40
2018-10-21T23:42:44.869Z,85.70
2018-10-21T23:45:13.594Z,85.70
2018-10-21T23:47:42.425Z,86.00
2018-10-21T23:50:10.913Z,86.00
2018-10-21T23:52:39.418Z,86.20
2018-10-21T23:55:07.898Z,86.40
2018-10-21T23:57:36.560Z,86.40
